Time;durP1;ratioP1;P1;durP2;ratioP2;P2;SDS_P1;SDS_P2;PMS_P1;PMS_P2;Temp;Humidity;BMP_temperature;BMP_pressure;BME280_temperature;BME280_humidity;BME280_pressure;Samples;Min_cycle;Max_cycle;Signal;HPM_P1;HPM_P2
2022/05/02 00:01:10;;;;;;;26.97;25.07;;;;;;;;;;5074332;28;20417;-87
2022/05/02 00:03:37;;;;;;;27.17;25.47;;;;;;;;;;5073524;28;20785;-87
2022/05/02 00:06:07;;;;;;;26.10;24.40;;;;;;;;;;5072683;28;20450;-87
2022/05/02 00:08:34;;;;;;;25.80;24.27;;;;;;;;;;5073352;28;20489;-87
2022/05/02 00:11:02;;;;;;;28.87;26.97;;;;;;;;;;5073854;28;20450;-87
2022/05/02 00:13:31;;;;;;;25.80;24.40;;;;;;;;;;5073914;28;20435;-87
2022/05/02 00:15:59;;;;;;;26.03;24.33;;;;;;;;;;5073828;28;21025;-87
2022/05/02 00:18:28;;;;;;;26.40;24.80;;;;;;;;;;5055738;28;20446;-87
2022/05/02 00:20:55;;;;;;;26.57;24.97;;;;;;;;;;5073688;28;20526;-87
2022/05/02 00:23:22;;;;;;;27.30;25.40;;;;;;;;;;5073694;28;20473;-87
2022/05/02 00:25:50;;;;;;;25.30;23.67;;;;;;;;;;5073513;28;20446;-87
2022/05/02 00:28:17;;;;;;;26.53;24.77;;;;;;;;;;5072764;28;20552;-87
2022/05/02 00:30:46;;;;;;;26.20;24.50;;;;;;;;;;5073118;28;20452;-87
2022/05/02 00:33:13;;;;;;;26.63;24.57;;;;;;;;;;5073259;28;20421;-87
2022/05/02 00:35:41;;;;;;;26.20;24.50;;;;;;;;;;5073437;28;20462;-87
2022/05/02 00:38:08;;;;;;;25.67;23.97;;;;;;;;;;5073373;28;20454;-87
2022/05/02 00:40:36;;;;;;;26.47;24.57;;;;;;;;;;5073902;28;20449;-87
2022/05/02 00:43:03;;;;;;;25.77;24.17;;;;;;;;;;5076801;28;20417;-86
2022/05/02 00:45:30;;;;;;;26.87;25.17;;;;;;;;;;5077163;28;20438;-87
2022/05/02 00:47:59;;;;;;;26.40;24.70;;;;;;;;;;5076672;28;20486;-87
2022/05/02 00:50:32;;;;;;;26.30;24.60;;;;;;;;;;5076644;28;20421;-87
2022/05/02 00:53:00;;;;;;;25.50;24.00;;;;;;;;;;5076702;28;20438;-87
2022/05/02 00:55:27;;;;;;;25.33;23.83;;;;;;;;;;5076865;28;20446;-87
2022/05/02 00:57:55;;;;;;;27.00;25.30;;;;;;;;;;5077075;28;20420;-87
2022/05/02 01:00:22;;;;;;;25.77;24.17;;;;;;;;;;5077255;28;20839;-87
2022/05/02 01:02:49;;;;;;;25.73;24.03;;;;;;;;;;5076967;28;20508;-87
2022/05/02 01:05:18;;;;;;;26.60;24.77;;;;;;;;;;5076886;28;20436;-87
2022/05/02 01:07:46;;;;;;;27.03;25.20;;;;;;;;;;5076277;28;20486;-87
2022/05/02 01:10:17;;;;;;;27.43;25.63;;;;;;;;;;5076480;28;20450;-87
2022/05/02 01:12:44;;;;;;;26.23;24.53;;;;;;;;;;5076484;28;20557;-88
2022/05/02 01:15:12;;;;;;;25.60;24.00;;;;;;;;;;5076462;28;20435;-87
2022/05/02 01:17:39;;;;;;;25.37;23.90;;;;;;;;;;5075443;28;20495;-87
2022/05/02 01:20:09;;;;;;;26.40;24.70;;;;;;;;;;5076545;28;20536;-87
2022/05/02 01:22:36;;;;;;;26.40;24.70;;;;;;;;;;5075875;28;20459;-87
2022/05/02 01:25:04;;;;;;;25.47;23.67;;;;;;;;;;5076153;28;20453;-87
2022/05/02 01:27:31;;;;;;;26.63;24.83;;;;;;;;;;5076117;28;20457;-87
2022/05/02 01:29:59;;;;;;;25.83;24.07;;;;;;;;;;5075925;28;20438;-87
2022/05/02 01:32:26;;;;;;;26.50;24.50;;;;;;;;;;5075694;28;20430;-87
2022/05/02 01:34:54;;;;;;;27.17;25.27;;;;;;;;;;5076060;28;20417;-87
2022/05/02 01:37:22;;;;;;;27.27;25.30;;;;;;;;;;5075883;28;20401;-87
2022/05/02 01:39:50;;;;;;;25.00;23.40;;;;;;;;;;5076228;28;20438;-87
2022/05/02 01:42:17;;;;;;;25.77;24.17;;;;;;;;;;5075903;28;20484;-86
2022/05/02 01:44:45;;;;;;;26.00;24.40;;;;;;;;;;5075903;28;20500;-87
2022/05/02 01:47:12;;;;;;;25.77;24.10;;;;;;;;;;5075593;28;20442;-86
2022/05/02 01:49:39;;;;;;;25.77;24.27;;;;;;;;;;5075497;28;20863;-88
2022/05/02 01:52:07;;;;;;;25.43;23.73;;;;;;;;;;5074996;28;20443;-87
2022/05/02 01:54:36;;;;;;;26.73;25.00;;;;;;;;;;5075557;28;20471;-87
2022/05/02 01:57:04;;;;;;;26.00;24.20;;;;;;;;;;5075272;28;20453;-87
2022/05/02 01:59:31;;;;;;;25.43;23.77;;;;;;;;;;5075520;28;20458;-87
2022/05/02 02:01:58;;;;;;;25.60;24.10;;;;;;;;;;5075676;28;20454;-87
2022/05/02 02:07:07;;;;;;;26.80;24.97;;;;;;;;;;5031254;28;20438;-86
2022/05/02 02:09:36;;;;;;;26.03;24.23;;;;;;;;;;5075340;28;20531;-87
2022/05/02 02:12:03;;;;;;;24.33;22.93;;;;;;;;;;5075352;28;20444;-87
2022/05/02 02:14:31;;;;;;;26.10;24.50;;;;;;;;;;5075174;28;20458;-87
2022/05/02 02:16:58;;;;;;;26.23;24.40;;;;;;;;;;5075150;28;20450;-87
2022/05/02 02:19:25;;;;;;;26.27;24.47;;;;;;;;;;5075236;28;20529;-87
2022/05/02 02:22:16;;;;;;;25.37;23.67;;;;;;;;;;5075406;28;20445;-87
2022/05/02 02:24:42;;;;;;;25.80;24.10;;;;;;;;;;5074774;28;20446;-87
2022/05/02 02:27:09;;;;;;;26.60;24.70;;;;;;;;;;5074769;28;20417;-87
2022/05/02 02:29:36;;;;;;;24.70;23.27;;;;;;;;;;5073576;28;20494;-85
2022/05/02 02:32:04;;;;;;;25.43;23.70;;;;;;;;;;5074896;28;20450;-87
2022/05/02 02:34:32;;;;;;;24.40;22.70;;;;;;;;;;5074705;28;20516;-87
2022/05/02 02:37:00;;;;;;;24.90;23.33;;;;;;;;;;5074917;28;20446;-91
2022/05/02 02:39:27;;;;;;;25.83;24.03;;;;;;;;;;5074768;28;20443;-89
2022/05/02 02:41:56;;;;;;;24.43;22.93;;;;;;;;;;5074849;28;20425;-89
2022/05/02 02:44:23;;;;;;;25.03;23.43;;;;;;;;;;5075066;28;20427;-89
2022/05/02 02:46:50;;;;;;;25.43;23.83;;;;;;;;;;5074871;28;20474;-90
2022/05/02 02:49:18;;;;;;;25.60;23.87;;;;;;;;;;5074471;28;20870;-90
2022/05/02 02:51:45;;;;;;;24.93;23.33;;;;;;;;;;5074544;28;20446;-90
2022/05/02 02:54:13;;;;;;;25.20;23.57;;;;;;;;;;5074542;28;20442;-90
2022/05/02 02:56:40;;;;;;;25.20;23.70;;;;;;;;;;5074209;28;20498;-90
2022/05/02 02:59:09;;;;;;;25.93;23.87;;;;;;;;;;5074416;28;20401;-90
2022/05/02 03:01:36;;;;;;;25.83;24.03;;;;;;;;;;5074050;28;20433;-90
2022/05/02 03:06:01;;;;;;;25.30;23.60;;;;;;;;;;5074115;28;21090;-90
2022/05/02 03:06:50;;;;;;;25.17;23.60;;;;;;;;;;5074193;28;20419;-88
2022/05/02 03:09:18;;;;;;;24.93;23.43;;;;;;;;;;5074044;28;20509;-88
2022/05/02 03:11:45;;;;;;;26.17;24.30;;;;;;;;;;5074292;28;20405;-90
2022/05/02 03:14:14;;;;;;;26.03;24.37;;;;;;;;;;5074406;28;20434;-90
2022/05/02 03:16:41;;;;;;;25.97;24.10;;;;;;;;;;5074412;28;20421;-89
2022/05/02 03:19:08;;;;;;;25.70;24.20;;;;;;;;;;5074226;28;20465;-89
2022/05/02 03:21:36;;;;;;;25.83;24.30;;;;;;;;;;5073830;28;20449;-90
2022/05/02 03:24:03;;;;;;;24.10;22.53;;;;;;;;;;5074081;28;20997;-89
2022/05/02 03:26:31;;;;;;;24.40;22.90;;;;;;;;;;5074709;28;20461;-90
2022/05/02 03:28:58;;;;;;;26.30;24.57;;;;;;;;;;5073976;28;20489;-90
2022/05/02 03:31:27;;;;;;;25.27;23.70;;;;;;;;;;5073990;28;20454;-89
2022/05/02 03:33:54;;;;;;;24.83;23.37;;;;;;;;;;5073879;28;20460;-90
2022/05/02 03:36:21;;;;;;;25.63;24.17;;;;;;;;;;5074379;28;20450;-90
2022/05/02 03:38:49;;;;;;;25.70;24.07;;;;;;;;;;5073364;28;20446;-90
2022/05/02 03:41:16;;;;;;;25.70;23.90;;;;;;;;;;5073619;28;20438;-90
2022/05/02 03:43:43;;;;;;;26.07;24.23;;;;;;;;;;5073859;28;20812;-90
2022/05/02 03:46:11;;;;;;;25.10;23.50;;;;;;;;;;5073779;28;20442;-89
2022/05/02 03:48:40;;;;;;;26.33;24.37;;;;;;;;;;5074044;28;20469;-89
2022/05/02 03:51:07;;;;;;;25.43;23.70;;;;;;;;;;5073873;28;20434;-89
2022/05/02 03:53:35;;;;;;;26.57;24.80;;;;;;;;;;5073624;28;20405;-90
2022/05/02 03:56:02;;;;;;;25.20;23.50;;;;;;;;;;5073735;28;20490;-90
2022/05/02 03:58:29;;;;;;;25.13;23.63;;;;;;;;;;5073549;28;20504;-90
2022/05/02 04:00:57;;;;;;;25.60;23.90;;;;;;;;;;5073587;28;20430;-89
2022/05/02 04:03:24;;;;;;;24.70;23.30;;;;;;;;;;5073653;28;20856;-90
2022/05/02 04:05:53;;;;;;;24.83;23.23;;;;;;;;;;5073508;28;20417;-90
2022/05/02 04:08:21;;;;;;;25.53;23.60;;;;;;;;;;5073788;28;20445;-90
2022/05/02 04:10:48;;;;;;;24.93;23.43;;;;;;;;;;5074065;28;20440;-90
2022/05/02 04:13:16;;;;;;;28.53;24.70;;;;;;;;;;5073410;28;20911;-88
2022/05/02 04:15:43;;;;;;;25.73;23.93;;;;;;;;;;5074281;28;20479;-88
2022/05/02 04:18:10;;;;;;;25.30;23.53;;;;;;;;;;5077313;28;20413;-88
2022/05/02 04:20:38;;;;;;;25.47;23.97;;;;;;;;;;5077038;28;20420;-88
2022/05/02 04:23:07;;;;;;;25.60;24.10;;;;;;;;;;5076968;28;20474;-89
2022/05/02 04:25:34;;;;;;;27.10;25.00;;;;;;;;;;5076229;28;20446;-86
2022/05/02 04:28:01;;;;;;;25.10;23.60;;;;;;;;;;5075977;28;20993;-85
2022/05/02 04:30:29;;;;;;;25.63;24.03;;;;;;;;;;5077461;28;20493;-85
2022/05/02 04:32:56;;;;;;;25.70;24.20;;;;;;;;;;5077044;28;20413;-86
2022/05/02 04:35:24;;;;;;;25.37;23.83;;;;;;;;;;5077216;28;20430;-86
2022/05/02 04:37:51;;;;;;;25.53;23.87;;;;;;;;;;5076757;28;20449;-86
2022/05/02 04:40:20;;;;;;;25.03;23.37;;;;;;;;;;5075977;28;20454;-86
2022/05/02 04:42:48;;;;;;;25.70;23.80;;;;;;;;;;5076938;28;20446;-86
2022/05/02 04:45:15;;;;;;;25.23;23.57;;;;;;;;;;5076954;28;20995;-86
2022/05/02 04:47:42;;;;;;;24.93;23.33;;;;;;;;;;5076887;28;20458;-85
2022/05/02 04:50:10;;;;;;;24.90;23.40;;;;;;;;;;5076561;28;20514;-89
2022/05/02 04:52:37;;;;;;;24.83;23.13;;;;;;;;;;5076786;28;20488;-89
2022/05/02 04:55:05;;;;;;;24.83;23.43;;;;;;;;;;5076454;28;20420;-89
2022/05/02 04:57:34;;;;;;;25.03;23.53;;;;;;;;;;5076325;28;20488;-88
2022/05/02 05:00:01;;;;;;;25.13;23.33;;;;;;;;;;5076652;28;20450;-88
2022/05/02 05:02:29;;;;;;;25.10;23.60;;;;;;;;;;5076541;28;20445;-86
2022/05/02 05:04:56;;;;;;;26.10;24.50;;;;;;;;;;5076699;28;20435;-85
2022/05/02 05:07:24;;;;;;;26.10;24.40;;;;;;;;;;5076534;28;20435;-86
2022/05/02 05:09:51;;;;;;;25.03;23.53;;;;;;;;;;5076194;28;20481;-86
2022/05/02 05:12:24;;;;;;;25.93;24.33;;;;;;;;;;5076264;28;20409;-86
2022/05/02 05:17:47;;;;;;;26.80;24.97;;;;;;;;;;5076327;28;20430;-86
2022/05/02 05:20:18;;;;;;;26.20;24.43;;;;;;;;;;5076091;28;20428;-86
2022/05/02 05:22:57;;;;;;;26.03;24.40;;;;;;;;;;5076167;28;20461;-85
2022/05/02 05:25:33;;;;;;;25.63;24.10;;;;;;;;;;5076135;28;20481;-86
2022/05/02 05:28:06;;;;;;;26.83;24.90;;;;;;;;;;5076221;28;20409;-86
2022/05/02 05:30:39;;;;;;;26.53;24.73;;;;;;;;;;5075821;28;20471;-86
2022/05/02 05:33:13;;;;;;;26.87;25.00;;;;;;;;;;5076148;28;20476;-86
2022/05/02 05:35:46;;;;;;;26.97;24.90;;;;;;;;;;5076138;28;20434;-85
2022/05/02 05:38:17;;;;;;;26.00;24.20;;;;;;;;;;5075946;28;20444;-85
2022/05/02 05:40:48;;;;;;;26.90;25.10;;;;;;;;;;5075787;28;20445;-86
2022/05/02 05:43:22;;;;;;;26.80;25.10;;;;;;;;;;5075937;28;20457;-86
2022/05/02 05:46:02;;;;;;;27.13;25.30;;;;;;;;;;5075660;28;20549;-86
2022/05/02 05:48:33;;;;;;;26.17;24.50;;;;;;;;;;5075537;28;20461;-86
2022/05/02 05:51:04;;;;;;;26.13;24.50;;;;;;;;;;5075162;28;20486;-86
2022/05/02 05:53:36;;;;;;;26.23;24.00;;;;;;;;;;5075761;28;20446;-86
2022/05/02 05:56:08;;;;;;;26.80;25.00;;;;;;;;;;5075462;28;20487;-87
2022/05/02 05:58:45;;;;;;;25.80;24.00;;;;;;;;;;5075373;28;20818;-84
2022/05/02 06:01:16;;;;;;;25.77;24.07;;;;;;;;;;5075625;28;20433;-86
2022/05/02 06:03:51;;;;;;;26.57;24.67;;;;;;;;;;5075392;28;20447;-86
2022/05/02 06:06:18;;;;;;;27.07;25.30;;;;;;;;;;5073323;28;20431;-81
2022/05/02 06:08:46;;;;;;;25.97;24.37;;;;;;;;;;5074734;28;20863;-80
2022/05/02 06:11:15;;;;;;;26.60;24.60;;;;;;;;;;5074982;28;20459;-80
2022/05/02 06:13:42;;;;;;;25.50;23.90;;;;;;;;;;5075186;28;20417;-81
2022/05/02 06:18:57;;;;;;;25.87;23.80;;;;;;;;;;5074070;28;20429;-80
2022/05/02 06:21:25;;;;;;;26.80;25.07;;;;;;;;;;5073867;28;20447;-81
2022/05/02 06:23:53;;;;;;;26.17;24.60;;;;;;;;;;5073912;28;20406;-81
2022/05/02 06:26:23;;;;;;;26.13;24.33;;;;;;;;;;5073907;28;20507;-82
2022/05/02 06:28:51;;;;;;;25.80;24.10;;;;;;;;;;5073880;28;20417;-79
2022/05/02 06:31:20;;;;;;;26.67;24.80;;;;;;;;;;5073677;28;20491;-82
2022/05/02 06:33:49;;;;;;;26.17;24.57;;;;;;;;;;5073853;28;20810;-82
2022/05/02 06:36:35;;;;;;;27.63;25.70;;;;;;;;;;5074005;28;20458;-81
2022/05/02 06:39:06;;;;;;;26.83;25.23;;;;;;;;;;5052770;28;20495;-81
2022/05/02 06:41:44;;;;;;;26.80;25.10;;;;;;;;;;5073750;28;20409;-82
2022/05/02 06:44:15;;;;;;;27.30;25.43;;;;;;;;;;5073471;28;20446;-82
2022/05/02 06:46:44;;;;;;;26.20;24.30;;;;;;;;;;5073702;28;20434;-82
2022/05/02 06:49:13;;;;;;;26.00;24.40;;;;;;;;;;5073375;28;20942;-81
2022/05/02 06:51:42;;;;;;;26.37;24.50;;;;;;;;;;5073421;28;20466;-82
2022/05/02 06:54:27;;;;;;;26.20;24.60;;;;;;;;;;5073509;28;20433;-81
2022/05/02 06:57:01;;;;;;;25.93;24.33;;;;;;;;;;5073168;28;20565;-82
2022/05/02 06:59:33;;;;;;;26.80;25.10;;;;;;;;;;5073397;28;20434;-82
2022/05/02 07:02:05;;;;;;;26.60;24.80;;;;;;;;;;5073480;28;20537;-82
2022/05/02 07:04:53;;;;;;;27.13;25.43;;;;;;;;;;5073444;28;20454;-82
2022/05/02 07:07:35;;;;;;;27.07;25.30;;;;;;;;;;5069824;28;20437;-82
2022/05/02 07:10:04;;;;;;;26.00;24.50;;;;;;;;;;5072050;28;21065;-82
2022/05/02 07:12:33;;;;;;;26.93;24.90;;;;;;;;;;5073367;28;20420;-82
2022/05/02 07:15:05;;;;;;;25.93;24.23;;;;;;;;;;5073180;28;20476;-82
2022/05/02 07:17:47;;;;;;;26.40;24.57;;;;;;;;;;5073064;28;20504;-82
2022/05/02 07:20:19;;;;;;;26.60;24.60;;;;;;;;;;5071623;28;20449;-81
2022/05/02 07:22:53;;;;;;;25.43;23.70;;;;;;;;;;5072859;28;20504;-81
2022/05/02 07:25:21;;;;;;;25.70;24.20;;;;;;;;;;5072927;28;20437;-82
2022/05/02 07:28:01;;;;;;;27.20;25.33;;;;;;;;;;5072851;28;20450;-82
2022/05/02 07:30:28;;;;;;;28.07;26.10;;;;;;;;;;5072951;28;20482;-82
2022/05/02 07:32:57;;;;;;;26.67;24.77;;;;;;;;;;5072997;28;20421;-81
2022/05/02 07:35:26;;;;;;;27.13;25.53;;;;;;;;;;5073101;28;20470;-82
2022/05/02 07:37:55;;;;;;;27.23;25.43;;;;;;;;;;5073036;28;20430;-82
2022/05/02 07:40:23;;;;;;;25.90;24.20;;;;;;;;;;5073428;28;20445;-82
2022/05/02 07:42:52;;;;;;;27.10;25.30;;;;;;;;;;5072765;28;20443;-82
2022/05/02 07:45:22;;;;;;;27.73;25.60;;;;;;;;;;5072890;28;20435;-82
2022/05/02 07:47:50;;;;;;;28.07;25.90;;;;;;;;;;5072675;28;20431;-82
2022/05/02 07:50:18;;;;;;;26.80;24.97;;;;;;;;;;5074215;28;20872;-81
2022/05/02 07:52:47;;;;;;;27.63;25.70;;;;;;;;;;5076872;28;20452;-77
2022/05/02 07:55:15;;;;;;;27.50;25.40;;;;;;;;;;5077147;28;20777;-82
2022/05/02 07:57:43;;;;;;;27.67;25.60;;;;;;;;;;5076598;28;20532;-82
2022/05/02 08:00:13;;;;;;;26.50;24.60;;;;;;;;;;5076741;28;20450;-81
2022/05/02 08:02:42;;;;;;;27.53;25.33;;;;;;;;;;5076915;28;20420;-79
2022/05/02 08:05:10;;;;;;;27.40;25.63;;;;;;;;;;5076925;28;20417;-82
2022/05/02 08:07:38;;;;;;;27.93;26.03;;;;;;;;;;5076798;28;20445;-82
2022/05/02 08:10:14;;;;;;;27.70;25.90;;;;;;;;;;5076325;28;20481;-82
2022/05/02 08:12:42;;;;;;;27.10;25.37;;;;;;;;;;5076610;28;20426;-82
2022/05/02 08:15:13;;;;;;;27.20;25.27;;;;;;;;;;5076469;28;20534;-82
2022/05/02 08:18:00;;;;;;;28.23;25.90;;;;;;;;;;5076640;28;20442;-82
2022/05/02 08:20:31;;;;;;;28.70;26.70;;;;;;;;;;5075147;28;20445;-82
2022/05/02 08:28:43;;;;;;;28.93;26.90;;;;;;;;;;5076502;28;20430;-81
2022/05/02 08:31:14;;;;;;;29.70;27.60;;;;;;;;;;5076238;28;20485;-82
2022/05/02 08:33:51;;;;;;;29.40;27.60;;;;;;;;;;5076479;28;20448;-83
2022/05/02 08:36:24;;;;;;;29.97;27.80;;;;;;;;;;5076431;28;20518;-82
2022/05/02 08:38:56;;;;;;;29.00;27.00;;;;;;;;;;5076048;28;20446;-81
2022/05/02 08:41:41;;;;;;;27.63;25.80;;;;;;;;;;5076417;28;20514;-82
2022/05/02 08:44:27;;;;;;;27.30;25.60;;;;;;;;;;5076877;28;20424;-83
2022/05/02 08:47:09;;;;;;;28.17;26.07;;;;;;;;;;5077416;28;20454;-83
2022/05/02 08:49:48;;;;;;;27.77;25.70;;;;;;;;;;5076627;28;20433;-83
2022/05/02 08:52:40;;;;;;;28.67;26.67;;;;;;;;;;5075968;28;20440;-83
2022/05/02 08:55:13;;;;;;;29.27;27.37;;;;;;;;;;5076330;28;20556;-83
2022/05/02 08:57:54;;;;;;;30.57;28.47;;;;;;;;;;5075763;28;20482;-84
2022/05/02 09:00:28;;;;;;;29.07;27.07;;;;;;;;;;5076604;28;20884;-83
2022/05/02 09:03:07;;;;;;;29.37;27.43;;;;;;;;;;5076181;28;20450;-83
2022/05/02 09:05:49;;;;;;;29.73;27.43;;;;;;;;;;5076316;28;20437;-85
2022/05/02 09:08:46;;;;;;;31.77;29.00;;;;;;;;;;5074464;28;20466;-84
2022/05/02 09:14:16;;;;;;;30.90;28.70;;;;;;;;;;5075750;28;20500;-94
2022/05/02 09:16:55;;;;;;;30.53;28.27;;;;;;;;;;5075258;28;20806;-89
2022/05/02 09:19:39;;;;;;;28.87;26.67;;;;;;;;;;5077032;28;20540;-89
2022/05/02 09:22:21;;;;;;;28.90;26.80;;;;;;;;;;5076108;28;20474;-94
2022/05/02 09:25:05;;;;;;;28.80;26.90;;;;;;;;;;5063624;28;20462;-85
2022/05/02 09:27:38;;;;;;;28.43;26.40;;;;;;;;;;5075938;28;20466;-87
2022/05/02 09:30:23;;;;;;;29.30;27.40;;;;;;;;;;5075626;28;20434;-89
2022/05/02 09:33:00;;;;;;;28.80;26.70;;;;;;;;;;5074878;28;21171;-88
2022/05/02 09:35:31;;;;;;;29.50;27.40;;;;;;;;;;5076363;28;20415;-88
2022/05/02 09:38:00;;;;;;;30.07;27.40;;;;;;;;;;5076109;28;20406;-88
2022/05/02 09:40:36;;;;;;;27.80;25.90;;;;;;;;;;5076479;28;20464;-89
2022/05/02 09:43:15;;;;;;;29.20;27.03;;;;;;;;;;5076809;28;20436;-90
2022/05/02 09:51:51;;;;;;;29.80;27.37;;;;;;;;;;5075959;28;20456;-84
2022/05/02 09:57:11;;;;;;;29.43;27.40;;;;;;;;;;5075613;28;20445;-85
2022/05/02 09:59:45;;;;;;;30.77;28.27;;;;;;;;;;5076066;28;20479;-85
2022/05/02 10:02:18;;;;;;;29.60;27.70;;;;;;;;;;5075838;28;20458;-85
2022/05/02 10:04:49;;;;;;;30.90;28.60;;;;;;;;;;5075870;28;20856;-87
2022/05/02 10:07:18;;;;;;;29.57;27.57;;;;;;;;;;5075229;28;20559;-84
2022/05/02 10:09:54;;;;;;;30.27;28.10;;;;;;;;;;5074772;28;20994;-84
2022/05/02 10:12:26;;;;;;;30.23;28.23;;;;;;;;;;5072629;28;20957;-83
2022/05/02 10:15:14;;;;;;;28.77;26.77;;;;;;;;;;5075057;28;20439;-84
2022/05/02 10:17:58;;;;;;;30.10;28.00;;;;;;;;;;5072707;28;20506;-83
2022/05/02 10:20:30;;;;;;;29.47;27.57;;;;;;;;;;5074343;28;20464;-83
2022/05/02 10:23:04;;;;;;;30.47;28.27;;;;;;;;;;5074617;28;20526;-83
2022/05/02 10:25:37;;;;;;;29.80;27.87;;;;;;;;;;5075016;28;20409;-83
2022/05/02 10:28:19;;;;;;;28.13;26.23;;;;;;;;;;5074516;28;20448;-81
2022/05/02 10:30:55;;;;;;;28.87;26.77;;;;;;;;;;5063176;28;20544;-82
2022/05/02 10:33:27;;;;;;;29.70;27.60;;;;;;;;;;5073826;28;20481;-87
2022/05/02 10:35:55;;;;;;;29.03;26.93;;;;;;;;;;5075841;28;20967;-87
2022/05/02 10:38:28;;;;;;;29.90;27.77;;;;;;;;;;5076125;28;20753;-87
2022/05/02 10:40:58;;;;;;;29.43;27.43;;;;;;;;;;5076250;28;20421;-86
2022/05/02 10:43:26;;;;;;;32.33;29.70;;;;;;;;;;5075479;28;20939;-87
2022/05/02 10:45:55;;;;;;;31.40;29.20;;;;;;;;;;5074618;28;20439;-87
2022/05/02 10:48:35;;;;;;;29.43;27.47;;;;;;;;;;5075041;28;20413;-87
2022/05/02 10:51:06;;;;;;;28.60;26.73;;;;;;;;;;5073399;28;20477;-86
2022/05/02 10:53:57;;;;;;;29.53;27.53;;;;;;;;;;5074628;28;20444;-87
2022/05/02 10:56:30;;;;;;;30.30;28.00;;;;;;;;;;5074255;28;20520;-87
2022/05/02 10:59:00;;;;;;;30.37;27.93;;;;;;;;;;5075000;28;20790;-87
2022/05/02 11:01:52;;;;;;;30.90;28.60;;;;;;;;;;5075252;28;20910;-87
2022/05/02 11:04:26;;;;;;;30.53;28.40;;;;;;;;;;5064698;28;20454;-85
2022/05/02 11:06:57;;;;;;;30.20;27.97;;;;;;;;;;5074849;28;20446;-84
2022/05/02 11:09:31;;;;;;;32.63;29.60;;;;;;;;;;5075111;28;21361;-91
2022/05/02 11:12:03;;;;;;;31.10;28.90;;;;;;;;;;5077553;28;20456;-90
2022/05/02 11:14:34;;;;;;;29.90;27.77;;;;;;;;;;5075346;28;20516;-87
2022/05/02 11:17:17;;;;;;;30.50;28.30;;;;;;;;;;5075251;28;20783;-90
2022/05/02 11:22:38;;;;;;;31.10;28.50;;;;;;;;;;5074975;28;20432;-81
2022/05/02 11:25:07;;;;;;;30.80;28.57;;;;;;;;;;5075769;28;20430;-81
2022/05/02 11:27:45;;;;;;;31.10;28.80;;;;;;;;;;5073346;28;20443;-81
2022/05/02 11:30:15;;;;;;;29.63;27.73;;;;;;;;;;5072635;28;20800;-81
2022/05/02 11:32:48;;;;;;;32.10;29.53;;;;;;;;;;5072988;28;20459;-81
2022/05/02 11:35:21;;;;;;;29.70;27.60;;;;;;;;;;5072798;28;20406;-81
2022/05/02 11:37:54;;;;;;;29.80;27.70;;;;;;;;;;5072603;28;20435;-82
2022/05/02 11:40:22;;;;;;;30.90;28.80;;;;;;;;;;5072595;28;20789;-82
2022/05/02 11:42:50;;;;;;;30.80;28.23;;;;;;;;;;5072805;28;20423;-82
2022/05/02 11:45:18;;;;;;;32.67;29.73;;;;;;;;;;5072924;28;20434;-82
2022/05/02 11:47:54;;;;;;;29.87;27.80;;;;;;;;;;5073036;28;20421;-82
2022/05/02 11:50:24;;;;;;;30.53;28.53;;;;;;;;;;5072848;28;20440;-82
2022/05/02 11:52:53;;;;;;;30.53;28.53;;;;;;;;;;5072618;28;20470;-82
2022/05/02 11:55:20;;;;;;;30.97;28.47;;;;;;;;;;5072655;28;20409;-82
2022/05/02 11:57:52;;;;;;;31.00;28.60;;;;;;;;;;5072319;28;20474;-82
2022/05/02 12:00:20;;;;;;;29.57;27.57;;;;;;;;;;5072437;28;20451;-81
2022/05/02 12:02:56;;;;;;;32.40;30.20;;;;;;;;;;5071212;28;20799;-81
2022/05/02 12:05:27;;;;;;;29.93;27.83;;;;;;;;;;5072807;28;20442;-82
2022/05/02 12:07:55;;;;;;;29.33;27.40;;;;;;;;;;5073010;28;20417;-82
2022/05/02 12:10:23;;;;;;;30.80;28.80;;;;;;;;;;5072380;28;20450;-82
2022/05/02 12:12:51;;;;;;;31.13;28.83;;;;;;;;;;5072885;28;20468;-81
2022/05/02 12:15:19;;;;;;;30.73;28.67;;;;;;;;;;5072610;28;20485;-82
2022/05/02 12:17:53;;;;;;;29.97;27.97;;;;;;;;;;5072648;28;20417;-82
2022/05/02 12:20:25;;;;;;;30.27;28.07;;;;;;;;;;5072772;28;20489;-81
2022/05/02 12:22:55;;;;;;;30.47;28.27;;;;;;;;;;5072312;28;20454;-83
2022/05/02 12:25:23;;;;;;;29.90;27.83;;;;;;;;;;5072352;28;20489;-82
2022/05/02 12:27:51;;;;;;;31.53;29.23;;;;;;;;;;5072104;28;20941;-82
2022/05/02 12:30:19;;;;;;;31.03;28.90;;;;;;;;;;5072158;28;20519;-82
2022/05/02 12:32:48;;;;;;;29.13;27.27;;;;;;;;;;5072018;28;20490;-82
2022/05/02 12:35:16;;;;;;;30.17;28.17;;;;;;;;;;5072636;28;20516;-82
2022/05/02 12:37:47;;;;;;;29.63;27.57;;;;;;;;;;5075924;28;20435;-80
2022/05/02 12:40:18;;;;;;;30.93;28.43;;;;;;;;;;5075515;28;20511;-81
2022/05/02 12:42:47;;;;;;;28.70;26.70;;;;;;;;;;5074529;28;20440;-81
2022/05/02 12:45:17;;;;;;;29.53;27.47;;;;;;;;;;5075614;28;20442;-82
2022/05/02 12:47:48;;;;;;;29.50;27.60;;;;;;;;;;5076110;28;20421;-82
2022/05/02 12:50:17;;;;;;;29.73;27.83;;;;;;;;;;5075816;28;20901;-82
2022/05/02 12:52:47;;;;;;;30.60;28.40;;;;;;;;;;5075545;28;20547;-81
2022/05/02 12:55:15;;;;;;;30.77;28.57;;;;;;;;;;5075073;28;20424;-82
2022/05/02 13:00:35;;;;;;;30.30;27.93;;;;;;;;;;5075406;28;20414;-82
2022/05/02 13:03:04;;;;;;;30.30;28.20;;;;;;;;;;5075223;28;20438;-81
2022/05/02 13:05:33;;;;;;;29.07;27.27;;;;;;;;;;5075588;28;20413;-81
2022/05/02 13:08:10;;;;;;;29.97;27.87;;;;;;;;;;5075361;28;20420;-82
2022/05/02 13:10:39;;;;;;;28.97;27.07;;;;;;;;;;5075412;28;20467;-81
2022/05/02 13:13:07;;;;;;;29.43;27.30;;;;;;;;;;5075594;28;20809;-82
2022/05/02 13:15:39;;;;;;;30.50;28.33;;;;;;;;;;5075056;28;20883;-82
2022/05/02 13:18:08;;;;;;;29.50;27.60;;;;;;;;;;5075360;28;20473;-82
2022/05/02 13:20:35;;;;;;;30.70;28.60;;;;;;;;;;5075077;28;20420;-82
2022/05/02 13:23:04;;;;;;;29.20;27.40;;;;;;;;;;5075134;28;20508;-82
2022/05/02 13:25:51;;;;;;;30.53;28.33;;;;;;;;;;5076232;28;20420;-91
2022/05/02 13:28:25;;;;;;;28.80;26.90;;;;;;;;;;5076253;28;20987;-89
2022/05/02 13:30:55;;;;;;;28.70;26.90;;;;;;;;;;5076037;28;20413;-91
2022/05/02 13:33:28;;;;;;;30.07;27.97;;;;;;;;;;5077793;28;20504;-88
2022/05/02 13:36:04;;;;;;;28.20;26.50;;;;;;;;;;5076250;28;20433;-93
2022/05/02 13:38:35;;;;;;;30.13;28.23;;;;;;;;;;5076380;28;20504;-92
2022/05/02 13:41:11;;;;;;;30.13;28.17;;;;;;;;;;5076382;28;20934;-91
2022/05/02 13:43:45;;;;;;;27.30;25.50;;;;;;;;;;5077187;28;20428;-91
2022/05/02 13:46:19;;;;;;;29.13;27.13;;;;;;;;;;5076516;28;20433;-93
2022/05/02 13:48:56;;;;;;;29.33;27.53;;;;;;;;;;5074994;28;20434;-91
2022/05/02 13:51:31;;;;;;;27.73;26.07;;;;;;;;;;5076247;28;20442;-92
2022/05/02 13:53:59;;;;;;;30.70;28.57;;;;;;;;;;5077308;28;20462;-92
2022/05/02 13:56:32;;;;;;;29.23;27.43;;;;;;;;;;5075506;28;20514;-91
2022/05/02 13:59:05;;;;;;;29.57;27.73;;;;;;;;;;5076688;28;20787;-92
2022/05/02 14:01:39;;;;;;;30.43;28.23;;;;;;;;;;5076600;28;20508;-92
2022/05/02 14:04:17;;;;;;;29.40;27.47;;;;;;;;;;5078932;28;20429;-92
2022/05/02 14:07:00;;;;;;;29.97;27.93;;;;;;;;;;5077585;28;20500;-92
2022/05/02 14:09:40;;;;;;;30.80;28.90;;;;;;;;;;5076296;28;20782;-93
2022/05/02 14:12:10;;;;;;;28.03;26.33;;;;;;;;;;5076213;28;20488;-92
2022/05/02 14:14:52;;;;;;;29.00;26.77;;;;;;;;;;5077467;28;20465;-93
2022/05/02 14:17:30;;;;;;;28.10;26.40;;;;;;;;;;5076344;28;20458;-92
2022/05/02 14:20:11;;;;;;;29.90;27.80;;;;;;;;;;5076196;28;20974;-90
2022/05/02 14:22:38;;;;;;;30.00;27.73;;;;;;;;;;5076531;28;20441;-92
2022/05/02 14:25:06;;;;;;;29.37;27.67;;;;;;;;;;5075958;28;20468;-92
2022/05/02 14:27:34;;;;;;;28.80;27.10;;;;;;;;;;5078215;28;20474;-92
2022/05/02 14:30:03;;;;;;;30.87;28.77;;;;;;;;;;5076318;28;20922;-92
2022/05/02 14:32:45;;;;;;;30.47;28.37;;;;;;;;;;5075182;28;20971;-88
2022/05/02 14:35:12;;;;;;;30.50;28.40;;;;;;;;;;5075029;28;20853;-87
2022/05/02 14:37:42;;;;;;;30.80;28.43;;;;;;;;;;5074537;28;20442;-89
2022/05/02 14:40:10;;;;;;;30.70;28.67;;;;;;;;;;5075318;28;20421;-90
2022/05/02 14:42:37;;;;;;;30.50;28.60;;;;;;;;;;5075232;28;20424;-88
2022/05/02 14:45:05;;;;;;;31.37;29.37;;;;;;;;;;5074965;28;20449;-87
2022/05/02 14:47:33;;;;;;;29.73;27.80;;;;;;;;;;5074608;28;20451;-88
2022/05/02 14:50:03;;;;;;;30.97;28.77;;;;;;;;;;5074935;28;20531;-88
2022/05/02 14:52:36;;;;;;;33.27;30.70;;;;;;;;;;5075355;28;20496;-88
2022/05/02 14:55:04;;;;;;;32.07;29.97;;;;;;;;;;5075385;28;20437;-89
2022/05/02 14:57:33;;;;;;;31.53;29.43;;;;;;;;;;5074746;28;20452;-88
2022/05/02 15:00:03;;;;;;;31.50;29.33;;;;;;;;;;5074354;28;20414;-89
2022/05/02 15:02:30;;;;;;;28.10;26.40;;;;;;;;;;5074733;28;20417;-88
2022/05/02 15:05:03;;;;;;;31.77;29.47;;;;;;;;;;5074662;28;20804;-88
2022/05/02 15:07:34;;;;;;;30.43;28.53;;;;;;;;;;5074184;28;20428;-90
2022/05/02 15:10:13;;;;;;;31.70;29.50;;;;;;;;;;5074227;28;20412;-87